Messwerte Seward

Temperatur

Temperatur
°C
1618995600 1.00 1.00 1
1618999200 2.00 2.00 1
1619002800 3.00 3.00 1
1619006400 4.00 4.00 -1
1619010000 5.00 5.00 -2
1619013600 6.00 6.00 -2
1619017200 7.00 7.00 -2
1619020800 8.00 8.00 0
1619024400 9.00 9.00 3
1619028000 10.00 10.00 6
1619031600 11.00 11.00 6
1619035200 12.00 12.00 7
1619038800 13.00 13.00 7
1619042400 14.00 14.00 7
1619046000 15.00 15.00 8
1619049600 16.00 16.00 8
1619053200 17.00 17.00 8
1619056800 18.00 18.00 7
1619060400 19.00 19.00
1619064000 20.00 20.00 6
1619067600 21.00 21.00 6
1619071200 22.00 22.00 6
1619074800 23.00 23.00 5
1619078400 0.00 0.00 4

Aktuellste Messwerte

Wettercharakter
Wetter: freundlich
Temperatur
2 °C
Feuchtigkeit
93 %
Wind
0 km/h, -
Luftdruck
1026 hPa
Messzeit: 22. April 2021, 1.00Datenquelle: METAR

Weitere Messstationen in der Nähe

Messstation Temperatur Entfernung
Soldotna 3 °C 96 km
Kenai 3 °C 111 km
Anchorage 7 °C 118 km
Anchorage 4 °C 121 km
Anchorage 6 °C 124 km
Homer 6 °C 127 km
Anchorage – Elmendor 5 °C 127 km

Wind

Windrichtung Böen Mittelwind
° km/h km/h
1618995600 1.00 0.00 - 1.00 340° 10
1618999200 2.00 1.00 - 2.00 0
1619002800 3.00 2.00 - 3.00 0
1619006400 4.00 3.00 - 4.00 0
1619010000 5.00 4.00 - 5.00 0
1619013600 6.00 5.00 - 6.00 0
1619017200 7.00 6.00 - 7.00 340° 10
1619020800 8.00 7.00 - 8.00 330° 15
1619024400 9.00 8.00 - 9.00 10° 10
1619028000 10.00 9.00 - 10.00 340° 10
1619031600 11.00 10.00 - 11.00 170° 15
1619035200 12.00 11.00 - 12.00
1619038800 13.00 12.00 - 13.00
1619042400 14.00 13.00 - 14.00
1619046000 15.00 14.00 - 15.00 170° 20
1619049600 16.00 15.00 - 16.00 200° 15
1619053200 17.00 16.00 - 17.00 190° 15
1619056800 18.00 17.00 - 18.00 180° 20
1619060400 19.00 18.00 - 19.00
1619064000 20.00 19.00 - 20.00 150° 20
1619067600 21.00 20.00 - 21.00 180° 20
1619071200 22.00 21.00 - 22.00 170° 15
1619074800 23.00 22.00 - 23.00 350° 5
1619078400 0.00 23.00 - 0.00 340° 5

Ihre Wetterstation

Fehlt Ihre Wetterstation auf unserem Portal?

Schreiben Sie an network@meteonews.ch

Klima

Wann ist es am wärmsten? Wann regnet es am wenigsten? Unsere Klimadaten geben Auskunft.